Terminal Aerodrome Forecast
Issued by NWS Wilmington, OH

Current Version | Previous Version | Text Only | Print | Product List | Glossary Off
Versions: 1 2 3 4 5 6 7 8 9 10 11 12 13 14 15 16 17 18

000
FTUS41 KILN 281620 AAA
TAFDAY
TAF AMD
KDAY 281620Z 2816/2912 18007KT P6SM FEW030 BKN120
     FM281730 20011KT 5SM -SHRA SCT030 BKN100
     FM281830 21012KT P6SM SCT040 BKN100
     FM282200 21012KT P6SM BKN040 OVC150
     FM290000 20006KT P6SM BKN150=

USA.gov is the U.S. government's official web portal to all federal, state and local government web resources and services.